Time;durP1;ratioP1;P1;durP2;ratioP2;P2;SDS_P1;SDS_P2;PMS_P1;PMS_P2;Temp;Humidity;BMP_temperature;BMP_pressure;BME280_temperature;BME280_humidity;BME280_pressure;Samples;Min_cycle;Max_cycle;Signal;HPM_P1;HPM_P2
2022/03/23 00:02:17;;;;;;;32.95;25.30;;;;;;;10.30;47.74;102845.91;5109726;28;20509;-67
2022/03/23 00:04:43;;;;;;;40.25;27.13;;;;;;;10.17;48.43;102850.66;5111234;28;20114;-66
2022/03/23 00:07:08;;;;;;;43.20;25.75;;;;;;;10.26;48.47;102852.19;5092366;28;20031;-67
2022/03/23 00:09:34;;;;;;;41.13;26.55;;;;;;;10.24;48.44;102854.91;5082089;28;20119;-67
2022/03/23 00:11:59;;;;;;;39.08;27.95;;;;;;;10.16;48.63;102848.94;5076186;28;20040;-67
2022/03/23 00:14:25;;;;;;;43.55;28.48;;;;;;;10.09;48.78;102862.44;5083390;28;20527;-66
2022/03/23 00:16:50;;;;;;;45.20;29.88;;;;;;;10.12;49.13;102851.75;5053618;28;20024;-67
2022/03/23 00:19:19;;;;;;;47.45;28.85;;;;;;;10.03;49.20;102855.53;5075354;28;20031;-66
2022/03/23 00:21:45;;;;;;;44.35;29.13;;;;;;;9.98;49.31;102862.75;5103815;28;20050;-66
2022/03/23 00:24:10;;;;;;;49.40;33.78;;;;;;;9.99;49.36;102861.81;5073800;28;20024;-67
2022/03/23 00:26:40;;;;;;;51.50;32.92;;;;;;;9.79;49.32;102857.06;5091299;28;20050;-66
2022/03/23 00:29:08;;;;;;;46.17;30.85;;;;;;;9.87;49.74;102855.06;5095595;28;20032;-66
2022/03/23 00:31:35;;;;;;;50.63;31.60;;;;;;;9.85;49.52;102861.34;5074008;28;20032;-67
2022/03/23 00:34:01;;;;;;;44.25;30.20;;;;;;;9.69;49.98;102861.75;5065159;28;20118;-67
2022/03/23 00:36:30;;;;;;;43.20;29.95;;;;;;;9.76;49.97;102863.38;5094831;28;20023;-66
2022/03/23 00:38:55;;;;;;;45.50;29.65;;;;;;;9.67;49.79;102857.41;5082492;28;20024;-67
2022/03/23 00:41:21;;;;;;;48.50;30.08;;;;;;;9.59;50.13;102854.06;5077233;28;20432;-66
2022/03/23 00:43:47;;;;;;;54.13;31.02;;;;;;;9.60;50.21;102856.69;5110121;28;20035;-66
2022/03/23 00:46:14;;;;;;;49.00;30.65;;;;;;;9.55;50.60;102856.81;5091405;28;20497;-66
2022/03/23 00:48:40;;;;;;;45.45;29.85;;;;;;;9.53;50.50;102860.44;5108208;28;20028;-67
2022/03/23 00:51:06;;;;;;;48.63;31.23;;;;;;;9.33;51.20;102866.25;5078042;28;20028;-67
2022/03/23 00:53:31;;;;;;;52.88;31.73;;;;;;;9.46;50.88;102864.16;5089123;28;20043;-67
2022/03/23 00:55:57;;;;;;;49.58;32.38;;;;;;;9.25;51.30;102863.78;5078385;28;20039;-67
2022/03/23 00:58:23;;;;;;;52.42;32.47;;;;;;;9.42;51.12;102863.38;5096274;28;20479;-66
2022/03/23 01:00:49;;;;;;;46.42;31.70;;;;;;;9.25;51.37;102863.78;5078628;28;20035;-67
2022/03/23 01:03:17;;;;;;;51.67;30.77;;;;;;;9.28;51.33;102855.75;5093679;28;20031;-67
2022/03/23 01:05:43;;;;;;;45.25;29.85;;;;;;;9.18;51.78;102859.56;5109373;28;20441;-67
2022/03/23 01:08:09;;;;;;;54.33;30.90;;;;;;;9.22;51.82;102847.94;5086524;28;20056;-66
2022/03/23 01:10:34;;;;;;;46.08;30.55;;;;;;;9.12;51.99;102856.16;5083453;28;20053;-66
2022/03/23 01:13:03;;;;;;;47.35;31.52;;;;;;;9.09;51.71;102841.22;5085549;28;20031;-66
2022/03/23 01:15:29;;;;;;;48.10;30.90;;;;;;;8.94;52.09;102850.41;5097416;28;20028;-67
2022/03/23 01:17:55;;;;;;;48.58;30.60;;;;;;;9.09;52.09;102852.69;5091053;28;20036;-66
2022/03/23 01:20:21;;;;;;;43.38;29.48;;;;;;;8.86;52.67;102847.94;5101893;28;20383;-66
2022/03/23 01:22:47;;;;;;;45.42;31.90;;;;;;;8.78;52.98;102856.97;5076656;28;20035;-66
2022/03/23 01:25:14;;;;;;;49.25;31.92;;;;;;;8.85;52.69;102859.47;5110558;28;20444;-66
2022/03/23 01:27:42;;;;;;;47.15;32.08;;;;;;;8.72;53.06;102835.91;5097024;28;20028;-66
2022/03/23 01:30:11;;;;;;;46.42;30.40;;;;;;;8.81;52.81;102847.16;5113303;28;20454;-66
2022/03/23 01:32:38;;;;;;;43.55;30.13;;;;;;;8.83;52.66;102847.13;5084308;28;20080;-66
2022/03/23 01:35:05;;;;;;;51.80;31.00;;;;;;;8.67;53.07;102841.28;5094110;28;20475;-67
2022/03/23 01:37:34;;;;;;;45.05;30.98;;;;;;;8.60;53.48;102835.28;5097729;28;20036;-66
2022/03/23 01:40:00;;;;;;;48.78;31.60;;;;;;;8.45;53.73;102829.44;5103689;28;20033;-67
2022/03/23 01:42:29;;;;;;;51.75;30.70;;;;;;;8.48;53.85;102834.69;5099625;28;20028;-66
2022/03/23 01:44:56;;;;;;;47.13;30.43;;;;;;;8.49;53.66;102826.69;5107799;28;20757;-67
2022/03/23 01:47:25;;;;;;;50.75;29.17;;;;;;;8.39;53.88;102830.47;5113605;28;20019;-67
2022/03/23 01:49:55;;;;;;;44.70;30.48;;;;;;;8.43;53.85;102839.22;5082757;28;20072;-66
2022/03/23 01:52:22;;;;;;;;;;;;;;;8.76;51.02;102829.59;5107688;28;20026;-66
2022/03/23 01:54:48;;;;;;;56.75;31.17;;;;;;;8.46;53.61;102833.84;5107285;28;19927;-66
2022/03/23 01:57:15;;;;;;;47.10;30.40;;;;;;;8.35;54.02;102834.03;5096918;28;20028;-66
2022/03/23 01:59:41;;;;;;;51.55;31.13;;;;;;;8.44;53.97;102827.69;5108967;28;20026;-66
2022/03/23 02:02:10;;;;;;;47.50;31.38;;;;;;;8.24;54.25;102825.47;5080725;28;20023;-67
2022/03/23 02:04:36;;;;;;;50.13;31.63;;;;;;;8.29;53.92;102818.25;5109506;28;20039;-66
2022/03/23 02:07:03;;;;;;;43.83;30.38;;;;;;;8.26;54.52;102827.16;5110533;28;20509;-66
2022/03/23 02:09:29;;;;;;;41.67;29.95;;;;;;;8.27;54.61;102826.25;5099672;28;20522;-66
2022/03/23 02:11:59;;;;;;;48.75;30.60;;;;;;;8.18;54.71;102823.81;5093366;28;20494;-66
2022/03/23 02:14:25;;;;;;;44.63;30.92;;;;;;;8.20;54.70;102821.97;5106186;28;20359;-66
2022/03/23 02:16:53;;;;;;;49.72;30.42;;;;;;;8.08;54.81;102822.25;5107658;28;20244;-66
2022/03/23 02:19:21;;;;;;;47.20;29.20;;;;;;;8.04;54.95;102818.78;5097933;28;20028;-66
2022/03/23 02:21:48;;;;;;;43.40;29.38;;;;;;;8.00;54.84;102827.72;5088406;28;20135;-67
2022/03/23 02:24:21;;;;;;;46.28;31.08;;;;;;;7.96;54.94;102824.22;5096785;28;20475;-66
2022/03/23 02:26:47;;;;;;;43.67;29.50;;;;;;;7.97;54.93;102822.44;5076384;28;20027;-67
2022/03/23 02:29:14;;;;;;;42.08;29.33;;;;;;;8.07;54.82;102825.81;5076348;28;20024;-67
2022/03/23 02:31:39;;;;;;;46.78;29.70;;;;;;;7.97;55.20;102826.00;5112064;28;20417;-67
2022/03/23 02:34:05;;;;;;;45.85;29.38;;;;;;;7.93;54.81;102826.94;5099129;28;20031;-66
2022/03/23 02:36:31;;;;;;;43.55;27.92;;;;;;;7.91;54.90;102834.06;5096918;28;20517;-66
2022/03/23 02:38:57;;;;;;;45.05;28.48;;;;;;;7.92;55.17;102827.00;5105324;28;20028;-66
2022/03/23 02:41:23;;;;;;;45.38;29.60;;;;;;;7.94;55.09;102825.16;5075224;28;20548;-67
2022/03/23 02:43:49;;;;;;;40.17;29.73;;;;;;;7.88;55.50;102826.19;5108538;28;20024;-66
2022/03/23 02:46:17;;;;;;;44.30;28.98;;;;;;;7.63;55.93;102811.66;5094441;28;20070;-67
2022/03/23 02:48:44;;;;;;;44.22;28.42;;;;;;;7.83;55.53;102822.75;5095153;28;20024;-66
2022/03/23 02:51:12;;;;;;;39.17;28.08;;;;;;;7.66;55.72;102816.91;5105845;28;20030;-66
2022/03/23 03:02:36;;;;;;;43.70;28.17;;;;;;;7.60;55.35;102827.63;5094367;28;20406;-66
2022/03/23 03:05:07;;;;;;;47.25;30.80;;;;;;;7.41;56.10;102814.72;5101922;28;20131;-66
2022/03/23 03:10:18;;;;;;;48.55;29.88;;;;;;;7.30;56.40;102826.41;5110134;28;20096;-66
2022/03/23 03:12:44;;;;;;;46.53;30.25;;;;;;;7.24;56.76;102827.38;5091522;28;20047;-66
2022/03/23 03:15:11;;;;;;;46.90;29.80;;;;;;;7.18;56.77;102833.66;5097118;28;20035;-66
2022/03/23 03:17:37;;;;;;;44.15;29.65;;;;;;;7.18;57.07;102830.13;5093735;28;20023;-66
2022/03/23 03:20:04;;;;;;;43.08;29.60;;;;;;;7.18;56.93;102830.13;5083164;28;20020;-66
2022/03/23 03:22:34;;;;;;;43.05;31.50;;;;;;;7.22;56.70;102831.81;5099490;28;20047;-66
2022/03/23 03:25:00;;;;;;;42.35;29.50;;;;;;;7.10;56.97;102834.66;5076495;28;20063;-66
2022/03/23 03:27:31;;;;;;;40.88;29.50;;;;;;;7.02;57.59;102832.13;5101313;28;20054;-66
2022/03/23 03:29:56;;;;;;;47.10;31.20;;;;;;;7.00;57.89;102834.81;5082696;28;20031;-67
2022/03/23 03:32:22;;;;;;;46.70;30.50;;;;;;;6.95;57.64;102836.66;5095256;28;20032;-67
2022/03/23 03:34:47;;;;;;;46.25;30.27;;;;;;;6.95;58.25;102838.44;5108783;28;20072;-66
2022/03/23 03:37:13;;;;;;;45.70;31.75;;;;;;;6.95;57.51;102835.78;5110794;28;20442;-67
2022/03/23 03:39:39;;;;;;;44.45;29.98;;;;;;;6.98;57.72;102830.44;5085027;28;20031;-66
2022/03/23 03:42:07;;;;;;;47.42;30.42;;;;;;;6.90;57.91;102840.28;5088189;28;20035;-66
2022/03/23 03:44:33;;;;;;;46.40;30.42;;;;;;;6.91;58.05;102836.72;5099566;28;20032;-67
2022/03/23 03:46:59;;;;;;;48.35;30.67;;;;;;;6.94;58.57;102834.94;5091166;28;20538;-66
2022/03/23 03:49:28;;;;;;;51.45;32.47;;;;;;;6.80;59.03;102828.97;5075466;28;20173;-67
2022/03/23 03:51:57;;;;;;;43.85;31.70;;;;;;;6.76;59.18;102836.06;5096470;28;20020;-67
2022/03/23 03:54:22;;;;;;;49.60;31.70;;;;;;;6.66;59.19;102837.09;5076401;28;20035;-66
2022/03/23 03:56:50;;;;;;;47.60;30.60;;;;;;;6.66;60.08;102839.75;5075203;28;20023;-66
2022/03/23 03:59:15;;;;;;;50.53;31.50;;;;;;;6.61;59.67;102844.22;5076716;28;20024;-66
2022/03/23 04:01:41;;;;;;;48.83;31.63;;;;;;;6.49;59.79;102839.97;5074840;28;20030;-66
2022/03/23 04:04:07;;;;;;;50.92;33.35;;;;;;;6.60;59.92;102838.06;5103104;28;20027;-66
2022/03/23 04:06:32;;;;;;;51.45;32.92;;;;;;;6.59;60.05;102832.81;5074829;28;20122;-66
2022/03/23 04:08:58;;;;;;;55.47;32.30;;;;;;;6.63;59.50;102838.94;5090373;28;20034;-66
2022/03/23 04:11:26;;;;;;;59.17;33.50;;;;;;;6.58;59.15;102839.84;5110834;28;20031;-67
2022/03/23 04:13:52;;;;;;;54.40;33.47;;;;;;;6.54;59.59;102842.56;5096007;28;20076;-66
2022/03/23 04:16:17;;;;;;;48.33;32.88;;;;;;;6.49;59.53;102844.41;5074377;28;20028;-66
2022/03/23 04:18:43;;;;;;;49.80;33.65;;;;;;;6.50;59.59;102848.78;5063136;28;20650;-66
2022/03/23 04:21:09;;;;;;;53.25;32.55;;;;;;;6.46;59.56;102849.72;5073867;28;20048;-66
2022/03/23 04:23:34;;;;;;;54.25;32.72;;;;;;;6.45;59.52;102837.41;5099986;28;20035;-66
2022/03/23 04:26:00;;;;;;;60.40;34.17;;;;;;;6.34;60.59;102841.06;5074888;28;20031;-66
2022/03/23 04:28:25;;;;;;;49.75;33.83;;;;;;;6.37;59.61;102837.50;5101491;28;20471;-67
2022/03/23 04:30:51;;;;;;;51.35;32.95;;;;;;;6.30;60.22;102838.50;5068378;28;20027;-66
2022/03/23 04:33:16;;;;;;;53.63;32.95;;;;;;;6.30;60.54;102833.22;5095400;28;20495;-66
2022/03/23 04:35:42;;;;;;;52.20;32.92;;;;;;;6.37;60.28;102838.38;5093523;28;20027;-66
2022/03/23 04:38:08;;;;;;;55.20;32.58;;;;;;;6.30;60.02;102842.00;5091393;28;20040;-67
2022/03/23 04:40:36;;;;;;;51.22;32.80;;;;;;;6.20;59.59;102850.06;5092912;28;20019;-67
2022/03/23 04:43:01;;;;;;;45.63;32.00;;;;;;;6.18;60.19;102847.47;5090677;28;20360;-66
2022/03/23 04:45:27;;;;;;;47.78;31.92;;;;;;;6.09;60.01;102848.44;5085531;28;20500;-66
2022/03/23 04:47:53;;;;;;;53.42;33.72;;;;;;;6.10;60.53;102855.47;5090767;28;20039;-66
2022/03/23 04:50:21;;;;;;;56.47;34.22;;;;;;;5.95;61.26;102855.66;5089646;28;20446;-66
2022/03/23 04:52:47;;;;;;;52.20;34.08;;;;;;;5.96;60.86;102856.50;5092202;28;21474;-67
2022/03/23 04:55:16;;;;;;;50.05;33.80;;;;;;;5.93;60.95;102862.69;5105729;28;20031;-66
2022/03/23 04:57:44;;;;;;;44.63;32.40;;;;;;;5.78;61.20;102865.47;5103818;28;20028;-67
2022/03/23 05:00:13;;;;;;;48.55;33.55;;;;;;;5.82;61.37;102869.81;5068585;28;20028;-66
2022/03/23 05:02:39;;;;;;;50.95;32.47;;;;;;;5.87;60.91;102870.66;5077042;28;20084;-66
2022/03/23 05:05:09;;;;;;;46.90;33.83;;;;;;;5.82;61.30;102875.09;5097773;28;20483;-66
2022/03/23 05:07:35;;;;;;;51.13;33.30;;;;;;;5.79;60.96;102870.72;5092921;28;20620;-66
2022/03/23 05:10:02;;;;;;;52.97;33.45;;;;;;;5.85;61.08;102880.34;5091414;28;20076;-66
2022/03/23 05:12:28;;;;;;;56.30;33.85;;;;;;;5.77;61.16;102869.03;5075889;28;20119;-66
2022/03/23 05:14:54;;;;;;;52.63;33.13;;;;;;;5.83;60.53;102884.81;5101627;28;20597;-66
2022/03/23 05:17:19;;;;;;;53.60;33.30;;;;;;;5.75;61.29;102884.00;5082602;28;20023;-66
2022/03/23 05:19:45;;;;;;;49.78;32.65;;;;;;;5.81;60.84;102883.94;5089500;28;20482;-66
2022/03/23 05:22:12;;;;;;;45.63;32.58;;;;;;;5.62;61.25;102873.56;5096829;27;20106;-65
2022/03/23 05:24:39;;;;;;;51.25;34.22;;;;;;;5.75;60.56;102876.94;5086790;28;20047;-66
2022/03/23 05:27:05;;;;;;;49.10;31.40;;;;;;;5.62;61.67;102876.22;5111935;28;20027;-66
2022/03/23 05:29:31;;;;;;;48.33;32.22;;;;;;;5.59;61.47;102886.78;5098092;28;20028;-66
2022/03/23 05:31:56;;;;;;;52.03;32.60;;;;;;;5.53;60.92;102881.56;5090289;28;20073;-67
2022/03/23 05:34:21;;;;;;;47.90;32.80;;;;;;;5.54;61.60;102883.31;5060460;28;20038;-67
2022/03/23 05:36:47;;;;;;;52.58;33.65;;;;;;;5.54;61.72;102887.72;5061479;28;20039;-66
2022/03/23 05:39:13;;;;;;;50.97;34.35;;;;;;;5.50;61.85;102883.34;5098294;28;20092;-66
2022/03/23 05:41:39;;;;;;;53.63;34.38;;;;;;;5.53;61.22;102883.31;5097306;28;20431;-66
2022/03/23 05:44:05;;;;;;;52.33;33.88;;;;;;;5.53;61.54;102885.94;5092379;28;20114;-66
2022/03/23 05:46:31;;;;;;;51.85;34.03;;;;;;;5.54;61.32;102888.59;5087392;28;20031;-66
2022/03/23 05:48:57;;;;;;;51.15;34.22;;;;;;;5.54;61.83;102893.88;5104024;28;20435;-66
2022/03/23 05:51:23;;;;;;;52.35;32.83;;;;;;;5.64;61.82;102886.72;5078653;28;20035;-66
2022/03/23 05:53:49;;;;;;;50.72;32.03;;;;;;;5.53;61.34;102891.22;5105076;28;20035;-66
2022/03/23 05:56:15;;;;;;;51.67;33.08;;;;;;;5.59;61.57;102892.06;5096201;28;20024;-66
2022/03/23 05:58:43;;;;;;;48.88;33.63;;;;;;;5.57;61.28;102893.84;5108381;28;20035;-67
2022/03/23 06:01:09;;;;;;;47.13;33.03;;;;;;;5.61;61.89;102898.19;5107276;28;20157;-66
2022/03/23 06:03:35;;;;;;;49.78;33.53;;;;;;;5.53;61.02;102899.16;5077256;28;20126;-66
2022/03/23 06:06:01;;;;;;;50.63;34.22;;;;;;;5.58;61.66;102892.94;5099183;28;20034;-66
2022/03/23 06:08:26;;;;;;;48.00;33.35;;;;;;;5.57;61.04;102904.41;5112888;28;20025;-66
2022/03/23 06:10:52;;;;;;;54.28;34.50;;;;;;;5.59;61.10;102904.38;5107268;28;20028;-66
2022/03/23 06:13:17;;;;;;;44.22;34.22;;;;;;;5.51;61.18;102906.22;5081160;28;20028;-66
2022/03/23 06:15:46;;;;;;;62.30;34.00;;;;;;;5.53;61.52;102907.97;5079699;28;20502;-66
2022/03/23 06:18:11;;;;;;;53.58;34.17;;;;;;;5.43;62.05;102903.63;5096650;28;20288;-65
2022/03/23 06:20:37;;;;;;;56.13;33.55;;;;;;;5.40;62.85;102896.63;5095607;28;20135;-66
2022/03/23 06:23:04;;;;;;;47.30;33.38;;;;;;;5.50;61.86;102904.44;5102986;28;20494;-65
2022/03/23 06:25:32;;;;;;;59.22;34.13;;;;;;;5.58;62.28;102908.78;5100655;28;20058;-66
2022/03/23 06:28:00;;;;;;;50.75;34.80;;;;;;;5.56;62.43;102915.84;5099205;28;20039;-66
2022/03/23 06:30:26;;;;;;;54.85;35.15;;;;;;;5.59;62.61;102910.56;5108666;28;20035;-67
2022/03/23 06:32:54;;;;;;;52.42;34.28;;;;;;;5.55;62.79;102910.56;5089203;28;20546;-66
2022/03/23 06:35:19;;;;;;;48.15;34.10;;;;;;;5.59;62.43;102907.91;5109985;28;20081;-66
2022/03/23 06:37:44;;;;;;;54.20;34.42;;;;;;;5.71;62.48;102906.91;5082099;28;20033;-66
2022/03/23 06:40:12;;;;;;;53.55;34.88;;;;;;;5.75;62.85;102919.19;5108747;28;20019;-66
2022/03/23 06:42:38;;;;;;;55.30;34.95;;;;;;;5.70;64.26;102916.56;5100169;28;20534;-66
2022/03/23 06:45:04;;;;;;;55.35;37.00;;;;;;;5.80;63.60;102922.66;5081422;28;20035;-66
2022/03/23 06:47:32;;;;;;;52.72;36.30;;;;;;;5.92;63.38;102925.19;5091280;28;20101;-66
2022/03/23 06:49:59;;;;;;;54.97;35.53;;;;;;;6.03;63.11;102924.22;5094938;28;20040;-66
2022/03/23 06:52:25;;;;;;;56.45;36.22;;;;;;;6.02;63.13;102914.56;5104290;28;20036;-66
2022/03/23 06:54:50;;;;;;;56.10;36.72;;;;;;;6.18;63.51;102928.47;5107692;28;20058;-66
2022/03/23 06:57:18;;;;;;;51.17;35.90;;;;;;;6.11;63.84;102909.16;5078990;28;20039;-66
2022/03/23 06:59:43;;;;;;;55.05;36.75;;;;;;;6.23;63.49;102931.94;5099735;28;20112;-66
2022/03/23 07:02:10;;;;;;;51.55;36.90;;;;;;;6.35;63.70;102929.13;5047599;28;20552;-66
2022/03/23 07:04:38;;;;;;;55.03;36.90;;;;;;;6.56;63.18;102928.91;5111908;28;20023;-65
2022/03/23 07:07:03;;;;;;;60.13;37.40;;;;;;;6.63;63.08;102928.81;5063409;28;20109;-66
2022/03/23 07:09:32;;;;;;;51.67;36.25;;;;;;;6.81;62.72;102925.91;5068820;28;20044;-66
2022/03/23 07:12:03;;;;;;;56.70;37.00;;;;;;;6.90;62.98;102935.50;5091926;28;20067;-66
2022/03/23 07:14:30;;;;;;;56.45;38.03;;;;;;;7.08;63.05;102935.22;5073143;28;20032;-67
2022/03/23 07:16:56;;;;;;;59.92;37.72;;;;;;;7.32;60.02;102931.31;5104536;28;20030;-67
2022/03/23 07:19:22;;;;;;;57.10;37.83;;;;;;;7.53;61.15;102939.81;5077485;28;20039;-67
2022/03/23 07:21:48;;;;;;;61.72;36.92;;;;;;;7.67;60.13;102927.22;5079791;28;20100;-66
2022/03/23 07:24:14;;;;;;;58.72;36.80;;;;;;;7.86;57.45;102944.53;5091824;28;20047;-67
2022/03/23 07:26:40;;;;;;;49.83;35.70;;;;;;;8.00;56.97;102940.75;5108488;28;20509;-67
2022/03/23 07:29:06;;;;;;;60.63;36.67;;;;;;;8.16;58.40;102940.44;5086581;28;20500;-67
2022/03/23 07:31:33;;;;;;;63.97;34.70;;;;;;;8.34;55.69;102933.91;5078309;28;20112;-66
2022/03/23 07:33:58;;;;;;;55.80;35.22;;;;;;;8.48;56.67;102943.41;5091763;28;20028;-67
2022/03/23 07:36:24;;;;;;;57.90;34.15;;;;;;;8.66;54.50;102939.50;5091426;28;20460;-67
2022/03/23 07:38:50;;;;;;;56.88;36.17;;;;;;;8.78;54.00;102944.53;5093016;28;20032;-66
2022/03/23 07:41:16;;;;;;;55.20;34.53;;;;;;;8.87;52.94;102933.72;5091701;28;20020;-66
2022/03/23 07:43:45;;;;;;;53.90;34.72;;;;;;;9.03;52.75;102943.09;5084229;28;20191;-66
2022/03/23 07:46:10;;;;;;;54.03;35.80;;;;;;;9.14;53.34;102944.59;5111558;28;20065;-67
2022/03/23 07:48:36;;;;;;;52.28;33.67;;;;;;;9.33;52.62;102943.28;5076629;28;20078;-67
2022/03/23 07:51:06;;;;;;;51.20;34.45;;;;;;;9.41;50.78;102948.38;5080188;28;20141;-67
2022/03/23 07:53:31;;;;;;;54.17;34.20;;;;;;;9.47;50.70;102949.13;5091548;28;20031;-67
2022/03/23 07:55:57;;;;;;;48.45;34.10;;;;;;;9.64;50.96;102956.66;5105154;28;20026;-67
2022/03/23 07:58:23;;;;;;;49.70;34.03;;;;;;;9.78;51.68;102959.84;5093421;28;20526;-66
2022/03/23 08:00:49;;;;;;;51.35;35.35;;;;;;;9.98;50.22;102963.78;5104988;28;20020;-66
2022/03/23 08:03:14;;;;;;;47.97;32.97;;;;;;;10.15;50.04;102966.84;5101852;28;20468;-66
2022/03/23 08:05:40;;;;;;;48.88;33.65;;;;;;;10.30;48.56;102967.38;5056176;28;20031;-67
2022/03/23 08:08:09;;;;;;;49.90;34.40;;;;;;;10.40;47.63;102963.53;5073330;28;20030;-67
2022/03/23 08:10:35;;;;;;;45.15;31.70;;;;;;;10.62;46.92;102958.50;5093174;28;20410;-67
2022/03/23 08:13:01;;;;;;;46.63;32.70;;;;;;;10.74;47.61;102949.28;5091312;28;20459;-66
2022/03/23 08:15:29;;;;;;;48.92;33.50;;;;;;;10.87;46.80;102950.63;5100947;28;20032;-67
2022/03/23 08:17:54;;;;;;;42.97;33.15;;;;;;;11.10;45.99;102963.22;5089040;28;20084;-66
2022/03/23 08:20:32;;;;;;;49.35;34.25;;;;;;;11.28;45.60;102961.78;5103756;28;20526;-67
2022/03/23 08:23:15;;;;;;;50.63;33.90;;;;;;;11.46;45.57;102952.31;5104755;28;20044;-67
2022/03/23 08:25:42;;;;;;;50.42;33.95;;;;;;;11.70;44.63;102962.16;5093253;28;20479;-67
2022/03/23 08:28:08;;;;;;;41.13;31.70;;;;;;;11.89;44.53;102962.44;5056486;28;20032;-66
2022/03/23 08:30:34;;;;;;;45.40;33.03;;;;;;;11.93;43.62;102966.72;5096181;28;20023;-66
2022/03/23 08:33:01;;;;;;;47.83;35.15;;;;;;;12.12;45.25;102958.97;5111422;28;20032;-66
2022/03/23 08:35:26;;;;;;;47.85;35.13;;;;;;;12.27;43.75;102960.22;5098976;28;20081;-66
2022/03/23 08:37:52;;;;;;;48.85;34.22;;;;;;;12.30;44.31;102951.22;5094305;28;20483;-66
2022/03/23 08:40:20;;;;;;;43.58;32.50;;;;;;;12.49;43.24;102955.81;5101088;28;20028;-66
2022/03/23 08:42:46;;;;;;;51.08;34.17;;;;;;;12.72;42.26;102960.28;5072974;28;20051;-66
2022/03/23 08:45:13;;;;;;;47.67;34.40;;;;;;;12.89;42.26;102964.13;5087314;28;20561;-66
2022/03/23 08:47:41;;;;;;;48.15;34.17;;;;;;;12.99;42.00;102959.28;5109307;28;20030;-66
2022/03/23 08:50:09;;;;;;;54.25;33.17;;;;;;;13.10;41.83;102965.06;5092740;28;20114;-66
2022/03/23 08:52:36;;;;;;;45.03;32.72;;;;;;;13.43;41.57;102962.88;5095459;28;20031;-66
2022/03/23 08:55:04;;;;;;;48.97;33.55;;;;;;;13.46;40.49;102959.22;5094839;28;20028;-66
2022/03/23 08:57:29;;;;;;;47.08;32.33;;;;;;;13.73;40.05;102963.38;5094719;28;20031;-66
2022/03/23 08:59:54;;;;;;;45.90;32.70;;;;;;;13.94;38.93;102939.31;5077850;28;20019;-66
2022/03/23 09:02:20;;;;;;;47.70;33.15;;;;;;;14.18;38.45;102965.03;5098131;28;20085;-66
2022/03/23 09:04:46;;;;;;;44.97;32.03;;;;;;;14.29;38.00;102959.16;5094555;28;20020;-66
2022/03/23 09:07:11;;;;;;;45.53;33.30;;;;;;;14.57;38.16;102968.69;5077165;28;20032;-66
2022/03/23 09:09:37;;;;;;;51.78;33.58;;;;;;;14.66;38.06;102966.44;5065156;28;20036;-66
2022/03/23 09:12:03;;;;;;;44.05;33.28;;;;;;;14.74;38.66;102958.06;5096822;28;20028;-66
2022/03/23 09:14:28;;;;;;;45.88;33.17;;;;;;;15.11;37.26;102962.50;5079855;28;20122;-66
2022/03/23 09:16:54;;;;;;;50.40;34.03;;;;;;;15.20;36.28;102966.56;5114243;28;20026;-66
2022/03/23 09:19:20;;;;;;;53.00;33.08;;;;;;;15.51;35.77;102960.56;5071814;28;20040;-66
2022/03/23 09:21:50;;;;;;;42.00;32.13;;;;;;;15.54;34.65;102963.09;5077759;28;20123;-66
2022/03/23 09:24:15;;;;;;;;;;;;;;;15.77;37.13;102964.66;5094751;28;20048;-66
2022/03/23 09:26:42;;;;;;;51.50;34.15;;;;;;;16.09;35.25;102960.31;5105687;28;20127;-66
2022/03/23 09:29:10;;;;;;;50.20;33.28;;;;;;;15.98;33.95;102961.81;5114645;28;20027;-65
2022/03/23 09:31:36;;;;;;;49.23;32.13;;;;;;;16.29;33.33;102958.34;5108520;28;20039;-66
2022/03/23 09:34:05;;;;;;;46.28;30.60;;;;;;;16.50;31.66;102970.66;5077013;28;20035;-65
2022/03/23 09:39:18;;;;;;;42.88;29.08;;;;;;;16.46;31.68;102963.69;5099118;28;20397;-65
2022/03/23 09:41:45;;;;;;;44.22;28.90;;;;;;;16.59;30.29;102958.53;5093781;28;20410;-65
2022/03/23 09:44:11;;;;;;;38.85;30.05;;;;;;;16.82;30.50;102959.97;5093782;28;20030;-65
2022/03/23 09:46:37;;;;;;;45.63;30.38;;;;;;;16.88;30.55;102959.63;5103188;28;20040;-65
2022/03/23 09:49:03;;;;;;;40.80;30.75;;;;;;;17.03;30.28;102956.09;5075443;28;20020;-66
2022/03/23 09:51:34;;;;;;;41.92;28.73;;;;;;;17.20;30.19;102959.63;5096365;28;20040;-66
2022/03/23 09:54:01;;;;;;;34.55;27.15;;;;;;;17.44;28.75;102960.91;5075732;28;20016;-66
2022/03/23 09:56:27;;;;;;;37.72;27.33;;;;;;;17.67;28.50;102975.69;5096406;28;20028;-66
2022/03/23 09:58:52;;;;;;;38.67;29.95;;;;;;;17.70;28.57;102967.44;5095824;28;20493;-65
2022/03/23 10:01:44;;;;;;;45.50;30.02;;;;;;;17.83;29.25;102967.63;5072619;28;20984;-66
2022/03/23 10:04:12;;;;;;;39.97;29.02;;;;;;;17.78;28.19;102974.22;5067183;28;20094;-66
2022/03/23 10:06:48;;;;;;;41.53;28.85;;;;;;;17.83;28.59;102970.31;5113573;28;20497;-66
2022/03/23 10:09:28;;;;;;;39.95;28.83;;;;;;;18.15;29.35;102968.38;5113982;28;20020;-66
2022/03/23 10:12:22;;;;;;;44.65;30.63;;;;;;;18.29;28.74;102974.72;5111695;28;20423;-65
2022/03/23 10:15:24;;;;;;;42.05;28.17;;;;;;;18.42;28.46;102981.09;5112329;28;20053;-66
2022/03/23 10:18:25;;;;;;;37.35;27.67;;;;;;;18.50;27.63;102976.09;5113504;28;20474;-66
2022/03/23 10:20:51;;;;;;;39.65;28.42;;;;;;;18.90;26.67;102967.31;5113582;28;20016;-66
2022/03/23 10:23:23;;;;;;;39.33;29.00;;;;;;;18.76;26.90;102968.19;5111972;28;20468;-66
2022/03/23 10:25:49;;;;;;;43.40;29.05;;;;;;;18.87;26.81;102970.22;5111007;28;20069;-66
2022/03/23 10:28:16;;;;;;;40.58;28.98;;;;;;;19.25;25.79;102968.56;5085216;28;20056;-65
2022/03/23 10:30:43;;;;;;;37.80;28.77;;;;;;;19.34;25.71;102969.81;5084327;28;20685;-65
2022/03/23 10:33:22;;;;;;;43.08;28.73;;;;;;;19.32;26.48;102957.38;5113303;28;20099;-66
2022/03/23 10:35:48;;;;;;;39.42;28.23;;;;;;;19.72;26.72;102961.84;5102530;28;20432;-66
2022/03/23 10:38:22;;;;;;;40.70;28.63;;;;;;;20.28;26.10;102958.03;5074956;28;20098;-66
2022/03/23 10:40:50;;;;;;;38.05;29.83;;;;;;;20.17;27.01;102958.78;5092657;28;20024;-66
2022/03/23 10:43:36;;;;;;;39.20;29.17;;;;;;;20.24;25.50;102954.69;5093056;28;20218;-66
2022/03/23 10:46:09;;;;;;;31.27;25.55;;;;;;;20.55;23.82;102958.78;5109510;28;20372;-66
2022/03/23 10:48:35;;;;;;;35.10;26.42;;;;;;;20.42;24.28;102956.06;5111439;28;20051;-66
2022/03/23 10:51:01;;;;;;;35.42;26.70;;;;;;;20.26;24.01;102951.84;5094471;28;20032;-66
2022/03/23 10:53:32;;;;;;;35.65;28.00;;;;;;;20.25;24.42;102947.44;5112793;28;20028;-66
2022/03/23 10:55:58;;;;;;;39.60;27.50;;;;;;;20.47;23.99;102950.34;5058134;28;20374;-66
2022/03/23 10:58:25;;;;;;;36.72;26.17;;;;;;;20.74;23.81;102946.66;5095196;28;20028;-66
2022/03/23 11:00:55;;;;;;;34.33;27.23;;;;;;;20.82;23.07;102946.94;5104646;28;20032;-66
2022/03/23 11:03:37;;;;;;;33.33;26.42;;;;;;;20.85;22.89;102946.72;5074623;28;20024;-66
2022/03/23 11:06:06;;;;;;;32.92;25.73;;;;;;;21.09;23.73;102941.34;5088635;28;20031;-66
2022/03/23 11:08:34;;;;;;;31.23;24.02;;;;;;;21.31;21.55;102937.88;5094519;28;20474;-66
2022/03/23 11:16:35;;;;;;;36.28;23.85;;;;;;;22.27;21.23;102945.88;5093812;28;20050;-64
2022/03/23 11:19:12;;;;;;;30.23;24.25;;;;;;;22.64;21.27;102932.91;5094438;28;20110;-64
2022/03/23 11:22:02;;;;;;;28.17;24.20;;;;;;;23.48;20.47;102937.78;5112309;28;20035;-64
2022/03/23 11:24:36;;;;;;;29.00;22.92;;;;;;;23.61;19.69;102934.88;5111931;28;20051;-64
2022/03/23 11:27:03;;;;;;;28.48;22.88;;;;;;;23.93;18.60;102930.25;5091656;28;20047;-66
2022/03/23 11:29:31;;;;;;;32.00;23.17;;;;;;;24.74;18.37;102927.66;5091729;28;20024;-65
2022/03/23 11:32:00;;;;;;;27.00;21.83;;;;;;;25.03;17.58;102941.34;5107676;28;20118;-64
2022/03/23 11:34:30;;;;;;;36.13;23.55;;;;;;;25.59;17.18;102928.94;5112254;28;20486;-64
2022/03/23 11:36:56;;;;;;;30.75;23.02;;;;;;;25.70;18.52;102926.00;5098948;28;20028;-65